sensor_id;sensor_type;location;lat;lon;timestamp;temperature;humidity
46117;DHT22;32591;48.102;11.772;2022-11-24T00:01:01;6.50;99.90
46117;DHT22;32591;48.102;11.772;2022-11-24T00:03:31;6.40;99.90
46117;DHT22;32591;48.102;11.772;2022-11-24T00:06:02;6.40;99.90
46117;DHT22;32591;48.102;11.772;2022-11-24T00:08:30;6.40;99.90
46117;DHT22;32591;48.102;11.772;2022-11-24T00:11:02;6.40;99.90
46117;DHT22;32591;48.102;11.772;2022-11-24T00:13:29;6.40;99.90
46117;DHT22;32591;48.102;11.772;2022-11-24T00:16:04;6.40;99.90
46117;DHT22;32591;48.102;11.772;2022-11-24T00:18:33;6.50;99.90
46117;DHT22;32591;48.102;11.772;2022-11-24T00:21:00;6.50;99.90
46117;DHT22;32591;48.102;11.772;2022-11-24T00:23:27;6.50;99.90
46117;DHT22;32591;48.102;11.772;2022-11-24T00:25:54;6.50;99.90
46117;DHT22;32591;48.102;11.772;2022-11-24T00:28:21;6.50;99.90
46117;DHT22;32591;48.102;11.772;2022-11-24T00:30:48;6.50;99.90
46117;DHT22;32591;48.102;11.772;2022-11-24T00:33:15;6.40;99.90
46117;DHT22;32591;48.102;11.772;2022-11-24T00:35:44;6.40;99.90
46117;DHT22;32591;48.102;11.772;2022-11-24T00:38:11;6.40;99.90
46117;DHT22;32591;48.102;11.772;2022-11-24T00:40:37;6.40;99.90
46117;DHT22;32591;48.102;11.772;2022-11-24T00:43:04;6.40;99.90
46117;DHT22;32591;48.102;11.772;2022-11-24T00:45:31;6.40;99.90
46117;DHT22;32591;48.102;11.772;2022-11-24T00:47:58;6.40;99.90
46117;DHT22;32591;48.102;11.772;2022-11-24T00:50:25;6.40;99.90
46117;DHT22;32591;48.102;11.772;2022-11-24T00:52:54;6.40;99.90
46117;DHT22;32591;48.102;11.772;2022-11-24T00:55:21;6.40;99.90
46117;DHT22;32591;48.102;11.772;2022-11-24T00:57:48;6.40;99.90
46117;DHT22;32591;48.102;11.772;2022-11-24T01:00:16;6.40;99.90
46117;DHT22;32591;48.102;11.772;2022-11-24T01:02:43;6.40;99.90
46117;DHT22;32591;48.102;11.772;2022-11-24T01:05:10;6.40;99.90
46117;DHT22;32591;48.102;11.772;2022-11-24T01:07:37;6.40;99.90
46117;DHT22;32591;48.102;11.772;2022-11-24T01:10:07;6.50;99.90
46117;DHT22;32591;48.102;11.772;2022-11-24T01:12:34;6.50;99.90
46117;DHT22;32591;48.102;11.772;2022-11-24T01:15:01;6.50;99.90
46117;DHT22;32591;48.102;11.772;2022-11-24T01:17:28;6.40;99.90
46117;DHT22;32591;48.102;11.772;2022-11-24T01:19:55;6.50;99.90
46117;DHT22;32591;48.102;11.772;2022-11-24T01:22:22;6.40;99.90
46117;DHT22;32591;48.102;11.772;2022-11-24T01:24:51;6.40;99.90
46117;DHT22;32591;48.102;11.772;2022-11-24T01:27:20;6.40;99.90
46117;DHT22;32591;48.102;11.772;2022-11-24T01:29:46;6.30;99.90
46117;DHT22;32591;48.102;11.772;2022-11-24T01:32:14;6.30;99.90
46117;DHT22;32591;48.102;11.772;2022-11-24T01:34:41;6.30;99.90
46117;DHT22;32591;48.102;11.772;2022-11-24T01:37:08;6.30;99.90
46117;DHT22;32591;48.102;11.772;2022-11-24T01:39:35;6.30;99.90
46117;DHT22;32591;48.102;11.772;2022-11-24T01:42:02;6.30;99.90
46117;DHT22;32591;48.102;11.772;2022-11-24T01:44:31;6.20;99.90
46117;DHT22;32591;48.102;11.772;2022-11-24T01:47:00;6.20;99.90
46117;DHT22;32591;48.102;11.772;2022-11-24T01:49:35;6.10;99.90
46117;DHT22;32591;48.102;11.772;2022-11-24T01:52:07;6.10;99.90
46117;DHT22;32591;48.102;11.772;2022-11-24T01:54:39;6.10;99.90
46117;DHT22;32591;48.102;11.772;2022-11-24T01:57:11;6.10;99.90
46117;DHT22;32591;48.102;11.772;2022-11-24T01:59:42;6.20;99.90
46117;DHT22;32591;48.102;11.772;2022-11-24T02:02:11;6.20;99.90
46117;DHT22;32591;48.102;11.772;2022-11-24T02:04:39;6.20;99.90
46117;DHT22;32591;48.102;11.772;2022-11-24T02:07:07;6.20;99.90
46117;DHT22;32591;48.102;11.772;2022-11-24T02:09:40;6.10;99.90
46117;DHT22;32591;48.102;11.772;2022-11-24T02:12:09;6.20;99.90
46117;DHT22;32591;48.102;11.772;2022-11-24T02:14:37;6.20;99.90
46117;DHT22;32591;48.102;11.772;2022-11-24T02:17:07;6.20;99.90
46117;DHT22;32591;48.102;11.772;2022-11-24T02:19:42;6.20;99.90
46117;DHT22;32591;48.102;11.772;2022-11-24T02:22:25;6.30;99.90
46117;DHT22;32591;48.102;11.772;2022-11-24T02:25:01;6.30;99.90
46117;DHT22;32591;48.102;11.772;2022-11-24T02:27:31;6.30;99.90
46117;DHT22;32591;48.102;11.772;2022-11-24T02:29:58;6.20;99.90
46117;DHT22;32591;48.102;11.772;2022-11-24T02:32:26;6.30;99.90
46117;DHT22;32591;48.102;11.772;2022-11-24T02:34:59;6.30;99.90
46117;DHT22;32591;48.102;11.772;2022-11-24T02:37:27;6.30;99.90
46117;DHT22;32591;48.102;11.772;2022-11-24T02:39:54;6.30;99.90
46117;DHT22;32591;48.102;11.772;2022-11-24T02:42:21;6.40;99.90
46117;DHT22;32591;48.102;11.772;2022-11-24T02:44:54;6.30;99.90
46117;DHT22;32591;48.102;11.772;2022-11-24T02:47:22;6.30;99.90
46117;DHT22;32591;48.102;11.772;2022-11-24T02:49:50;6.30;99.90
46117;DHT22;32591;48.102;11.772;2022-11-24T02:52:17;6.30;99.90
46117;DHT22;32591;48.102;11.772;2022-11-24T02:54:44;6.20;99.90
46117;DHT22;32591;48.102;11.772;2022-11-24T02:57:11;6.20;99.90
46117;DHT22;32591;48.102;11.772;2022-11-24T02:59:38;6.20;99.90
46117;DHT22;32591;48.102;11.772;2022-11-24T03:02:07;6.20;99.90
46117;DHT22;32591;48.102;11.772;2022-11-24T03:04:35;6.20;99.90
46117;DHT22;32591;48.102;11.772;2022-11-24T03:07:02;6.30;99.90
46117;DHT22;32591;48.102;11.772;2022-11-24T03:09:29;6.30;99.90
46117;DHT22;32591;48.102;11.772;2022-11-24T03:11:56;6.30;99.90
46117;DHT22;32591;48.102;11.772;2022-11-24T03:14:23;6.30;99.90
46117;DHT22;32591;48.102;11.772;2022-11-24T03:16:50;6.30;99.90
46117;DHT22;32591;48.102;11.772;2022-11-24T03:19:19;6.30;99.90
46117;DHT22;32591;48.102;11.772;2022-11-24T03:21:46;6.30;99.90
46117;DHT22;32591;48.102;11.772;2022-11-24T03:24:13;6.30;99.90
46117;DHT22;32591;48.102;11.772;2022-11-24T03:26:40;6.30;99.90
46117;DHT22;32591;48.102;11.772;2022-11-24T03:29:07;6.40;99.90
46117;DHT22;32591;48.102;11.772;2022-11-24T03:31:34;6.30;99.90
46117;DHT22;32591;48.102;11.772;2022-11-24T03:34:01;6.30;99.90
46117;DHT22;32591;48.102;11.772;2022-11-24T03:36:29;6.30;99.90
46117;DHT22;32591;48.102;11.772;2022-11-24T03:38:56;6.40;99.90
46117;DHT22;32591;48.102;11.772;2022-11-24T03:41:23;6.30;99.90
46117;DHT22;32591;48.102;11.772;2022-11-24T03:43:50;6.40;99.90
46117;DHT22;32591;48.102;11.772;2022-11-24T03:46:18;6.30;99.90
46117;DHT22;32591;48.102;11.772;2022-11-24T03:48:45;6.30;99.90
46117;DHT22;32591;48.102;11.772;2022-11-24T03:51:12;6.30;99.90
46117;DHT22;32591;48.102;11.772;2022-11-24T03:53:40;6.30;99.90
46117;DHT22;32591;48.102;11.772;2022-11-24T03:56:07;6.30;99.90
46117;DHT22;32591;48.102;11.772;2022-11-24T03:58:34;6.30;99.90
46117;DHT22;32591;48.102;11.772;2022-11-24T04:01:01;6.30;99.90
46117;DHT22;32591;48.102;11.772;2022-11-24T04:03:28;6.30;99.90
46117;DHT22;32591;48.102;11.772;2022-11-24T04:05:55;6.30;99.90
46117;DHT22;32591;48.102;11.772;2022-11-24T04:08:22;6.30;99.90
46117;DHT22;32591;48.102;11.772;2022-11-24T04:10:52;6.30;99.90
46117;DHT22;32591;48.102;11.772;2022-11-24T04:13:24;6.30;99.90
46117;DHT22;32591;48.102;11.772;2022-11-24T04:15:51;6.30;99.90
46117;DHT22;32591;48.102;11.772;2022-11-24T04:18:18;6.30;99.90
46117;DHT22;32591;48.102;11.772;2022-11-24T04:20:48;6.30;99.90
46117;DHT22;32591;48.102;11.772;2022-11-24T04:23:16;6.20;99.90
46117;DHT22;32591;48.102;11.772;2022-11-24T04:25:44;6.20;99.90
46117;DHT22;32591;48.102;11.772;2022-11-24T04:28:12;6.20;99.90
46117;DHT22;32591;48.102;11.772;2022-11-24T04:30:39;6.10;99.90
46117;DHT22;32591;48.102;11.772;2022-11-24T04:33:09;6.20;99.90
46117;DHT22;32591;48.102;11.772;2022-11-24T04:35:37;6.20;99.90
46117;DHT22;32591;48.102;11.772;2022-11-24T04:38:04;6.20;99.90
46117;DHT22;32591;48.102;11.772;2022-11-24T04:40:31;6.20;99.90
46117;DHT22;32591;48.102;11.772;2022-11-24T04:42:58;6.20;99.90
46117;DHT22;32591;48.102;11.772;2022-11-24T04:45:27;6.20;99.90
46117;DHT22;32591;48.102;11.772;2022-11-24T04:47:54;6.10;99.90
46117;DHT22;32591;48.102;11.772;2022-11-24T04:50:20;6.10;99.90
46117;DHT22;32591;48.102;11.772;2022-11-24T04:52:47;6.10;99.90
46117;DHT22;32591;48.102;11.772;2022-11-24T04:55:14;6.10;99.90
46117;DHT22;32591;48.102;11.772;2022-11-24T04:57:42;6.10;99.90
46117;DHT22;32591;48.102;11.772;2022-11-24T05:00:10;6.10;99.90
46117;DHT22;32591;48.102;11.772;2022-11-24T05:02:39;6.20;99.90
46117;DHT22;32591;48.102;11.772;2022-11-24T05:05:07;6.20;99.90
46117;DHT22;32591;48.102;11.772;2022-11-24T05:07:34;6.20;99.90
46117;DHT22;32591;48.102;11.772;2022-11-24T05:10:01;6.30;99.90
46117;DHT22;32591;48.102;11.772;2022-11-24T05:12:53;6.30;99.90
46117;DHT22;32591;48.102;11.772;2022-11-24T05:15:21;6.30;99.90
46117;DHT22;32591;48.102;11.772;2022-11-24T05:17:49;6.30;99.90
46117;DHT22;32591;48.102;11.772;2022-11-24T05:20:17;6.30;99.90
46117;DHT22;32591;48.102;11.772;2022-11-24T05:22:44;6.30;99.90
46117;DHT22;32591;48.102;11.772;2022-11-24T05:25:11;6.30;99.90
46117;DHT22;32591;48.102;11.772;2022-11-24T05:27:39;6.20;99.90
46117;DHT22;32591;48.102;11.772;2022-11-24T05:30:07;6.30;99.90
46117;DHT22;32591;48.102;11.772;2022-11-24T05:32:34;6.40;99.90
46117;DHT22;32591;48.102;11.772;2022-11-24T05:35:03;6.30;99.90
46117;DHT22;32591;48.102;11.772;2022-11-24T05:37:31;6.30;99.90
46117;DHT22;32591;48.102;11.772;2022-11-24T05:39:57;6.30;99.90
46117;DHT22;32591;48.102;11.772;2022-11-24T05:42:25;6.40;99.90
46117;DHT22;32591;48.102;11.772;2022-11-24T05:45:09;6.40;99.90
46117;DHT22;32591;48.102;11.772;2022-11-24T05:47:38;6.40;99.90
46117;DHT22;32591;48.102;11.772;2022-11-24T05:50:08;6.30;99.90
46117;DHT22;32591;48.102;11.772;2022-11-24T05:52:37;6.30;99.90
46117;DHT22;32591;48.102;11.772;2022-11-24T05:55:06;6.40;99.90
46117;DHT22;32591;48.102;11.772;2022-11-24T05:57:34;6.40;99.90
46117;DHT22;32591;48.102;11.772;2022-11-24T06:00:03;6.40;99.90
46117;DHT22;32591;48.102;11.772;2022-11-24T06:02:31;6.40;99.90
46117;DHT22;32591;48.102;11.772;2022-11-24T06:04:58;6.50;99.90
46117;DHT22;32591;48.102;11.772;2022-11-24T06:07:27;6.50;99.90
46117;DHT22;32591;48.102;11.772;2022-11-24T06:09:54;6.50;99.90
46117;DHT22;32591;48.102;11.772;2022-11-24T06:12:21;6.50;99.90
46117;DHT22;32591;48.102;11.772;2022-11-24T06:14:48;6.50;99.90
46117;DHT22;32591;48.102;11.772;2022-11-24T06:17:15;6.50;99.90
46117;DHT22;32591;48.102;11.772;2022-11-24T06:19:42;6.50;99.90
46117;DHT22;32591;48.102;11.772;2022-11-24T06:22:12;6.50;99.90
46117;DHT22;32591;48.102;11.772;2022-11-24T06:24:40;6.60;99.90
46117;DHT22;32591;48.102;11.772;2022-11-24T06:27:07;6.50;99.90
46117;DHT22;32591;48.102;11.772;2022-11-24T06:29:34;6.60;99.90
46117;DHT22;32591;48.102;11.772;2022-11-24T06:32:01;6.50;99.90
46117;DHT22;32591;48.102;11.772;2022-11-24T06:34:28;6.50;99.90
46117;DHT22;32591;48.102;11.772;2022-11-24T06:36:55;6.50;99.90
46117;DHT22;32591;48.102;11.772;2022-11-24T06:39:22;6.50;99.90
46117;DHT22;32591;48.102;11.772;2022-11-24T06:41:51;6.50;99.90
46117;DHT22;32591;48.102;11.772;2022-11-24T06:44:18;6.60;99.90
46117;DHT22;32591;48.102;11.772;2022-11-24T06:46:45;6.60;99.90
46117;DHT22;32591;48.102;11.772;2022-11-24T06:49:12;6.60;99.90
46117;DHT22;32591;48.102;11.772;2022-11-24T06:51:39;6.70;99.90
46117;DHT22;32591;48.102;11.772;2022-11-24T06:54:06;6.60;99.90
46117;DHT22;32591;48.102;11.772;2022-11-24T06:56:34;6.70;99.90
46117;DHT22;32591;48.102;11.772;2022-11-24T06:59:02;6.70;99.90
46117;DHT22;32591;48.102;11.772;2022-11-24T07:01:30;6.70;99.90
46117;DHT22;32591;48.102;11.772;2022-11-24T07:03:57;6.70;99.90
46117;DHT22;32591;48.102;11.772;2022-11-24T07:06:25;6.80;99.90
46117;DHT22;32591;48.102;11.772;2022-11-24T07:08:53;6.80;99.90
46117;DHT22;32591;48.102;11.772;2022-11-24T07:11:22;6.80;99.90
46117;DHT22;32591;48.102;11.772;2022-11-24T07:13:49;6.80;99.90
46117;DHT22;32591;48.102;11.772;2022-11-24T07:16:20;6.80;99.90
46117;DHT22;32591;48.102;11.772;2022-11-24T07:18:49;6.80;99.90
46117;DHT22;32591;48.102;11.772;2022-11-24T07:21:17;6.80;99.90
46117;DHT22;32591;48.102;11.772;2022-11-24T07:23:47;6.70;99.90
46117;DHT22;32591;48.102;11.772;2022-11-24T07:26:15;6.80;99.90
46117;DHT22;32591;48.102;11.772;2022-11-24T07:28:42;6.80;99.90
46117;DHT22;32591;48.102;11.772;2022-11-24T07:31:11;6.80;99.90
46117;DHT22;32591;48.102;11.772;2022-11-24T07:33:40;6.80;99.90
46117;DHT22;32591;48.102;11.772;2022-11-24T07:36:08;6.90;99.90
46117;DHT22;32591;48.102;11.772;2022-11-24T07:38:35;7.00;99.90
46117;DHT22;32591;48.102;11.772;2022-11-24T07:41:04;7.00;99.90
46117;DHT22;32591;48.102;11.772;2022-11-24T07:43:33;7.00;99.90
46117;DHT22;32591;48.102;11.772;2022-11-24T07:46:02;7.00;99.90
46117;DHT22;32591;48.102;11.772;2022-11-24T07:48:29;6.90;99.90
46117;DHT22;32591;48.102;11.772;2022-11-24T07:50:59;6.90;99.90
46117;DHT22;32591;48.102;11.772;2022-11-24T07:53:27;7.00;99.90
46117;DHT22;32591;48.102;11.772;2022-11-24T07:55:56;7.00;99.90
46117;DHT22;32591;48.102;11.772;2022-11-24T07:58:26;7.00;99.90
46117;DHT22;32591;48.102;11.772;2022-11-24T08:00:54;7.10;99.90
46117;DHT22;32591;48.102;11.772;2022-11-24T08:03:22;7.10;99.90
46117;DHT22;32591;48.102;11.772;2022-11-24T08:05:53;7.20;99.90
46117;DHT22;32591;48.102;11.772;2022-11-24T08:08:21;7.20;99.90
46117;DHT22;32591;48.102;11.772;2022-11-24T08:10:49;7.30;99.90
46117;DHT22;32591;48.102;11.772;2022-11-24T08:13:17;7.30;99.90
46117;DHT22;32591;48.102;11.772;2022-11-24T08:15:44;7.40;99.90
46117;DHT22;32591;48.102;11.772;2022-11-24T08:18:11;7.40;99.90
46117;DHT22;32591;48.102;11.772;2022-11-24T08:20:38;7.40;99.90
46117;DHT22;32591;48.102;11.772;2022-11-24T08:23:05;7.50;99.90
46117;DHT22;32591;48.102;11.772;2022-11-24T08:25:34;7.50;99.90
46117;DHT22;32591;48.102;11.772;2022-11-24T08:28:02;7.50;99.90
46117;DHT22;32591;48.102;11.772;2022-11-24T08:30:30;7.60;99.90
46117;DHT22;32591;48.102;11.772;2022-11-24T08:32:58;7.70;99.90
46117;DHT22;32591;48.102;11.772;2022-11-24T08:35:25;7.70;99.90
46117;DHT22;32591;48.102;11.772;2022-11-24T08:37:53;7.80;99.90
46117;DHT22;32591;48.102;11.772;2022-11-24T08:40:20;7.80;99.90
46117;DHT22;32591;48.102;11.772;2022-11-24T08:42:48;8.10;99.90
46117;DHT22;32591;48.102;11.772;2022-11-24T08:45:15;8.00;99.90
46117;DHT22;32591;48.102;11.772;2022-11-24T08:47:42;8.10;99.90
46117;DHT22;32591;48.102;11.772;2022-11-24T08:50:09;8.10;99.90
46117;DHT22;32591;48.102;11.772;2022-11-24T08:52:36;8.00;99.90
46117;DHT22;32591;48.102;11.772;2022-11-24T08:55:03;8.10;99.90
46117;DHT22;32591;48.102;11.772;2022-11-24T08:57:30;8.10;99.90
46117;DHT22;32591;48.102;11.772;2022-11-24T08:59:59;8.10;99.90
46117;DHT22;32591;48.102;11.772;2022-11-24T09:02:26;8.20;99.90
46117;DHT22;32591;48.102;11.772;2022-11-24T09:04:52;8.20;99.90
46117;DHT22;32591;48.102;11.772;2022-11-24T09:07:19;8.30;99.90
46117;DHT22;32591;48.102;11.772;2022-11-24T09:09:46;8.20;99.90
46117;DHT22;32591;48.102;11.772;2022-11-24T09:12:13;8.20;99.90
46117;DHT22;32591;48.102;11.772;2022-11-24T09:14:40;8.20;99.90
46117;DHT22;32591;48.102;11.772;2022-11-24T09:17:08;8.20;99.90
46117;DHT22;32591;48.102;11.772;2022-11-24T09:19:36;8.30;99.90
46117;DHT22;32591;48.102;11.772;2022-11-24T09:22:03;8.30;99.90
46117;DHT22;32591;48.102;11.772;2022-11-24T09:24:30;8.40;99.90
46117;DHT22;32591;48.102;11.772;2022-11-24T09:26:56;8.40;99.90
46117;DHT22;32591;48.102;11.772;2022-11-24T09:29:24;8.50;99.90
46117;DHT22;32591;48.102;11.772;2022-11-24T09:31:51;8.50;99.90
46117;DHT22;32591;48.102;11.772;2022-11-24T09:34:19;8.50;99.90
46117;DHT22;32591;48.102;11.772;2022-11-24T09:36:46;8.50;99.90
46117;DHT22;32591;48.102;11.772;2022-11-24T09:39:16;8.50;99.90
46117;DHT22;32591;48.102;11.772;2022-11-24T09:42:06;8.50;99.90
46117;DHT22;32591;48.102;11.772;2022-11-24T09:44:55;8.50;99.90
46117;DHT22;32591;48.102;11.772;2022-11-24T09:47:37;8.50;99.90
46117;DHT22;32591;48.102;11.772;2022-11-24T09:50:14;8.60;99.90
46117;DHT22;32591;48.102;11.772;2022-11-24T09:52:47;8.80;99.90
46117;DHT22;32591;48.102;11.772;2022-11-24T09:55:26;8.90;99.90
46117;DHT22;32591;48.102;11.772;2022-11-24T09:58:02;9.10;99.90
46117;DHT22;32591;48.102;11.772;2022-11-24T10:00:35;9.20;99.90
46117;DHT22;32591;48.102;11.772;2022-11-24T10:03:03;9.10;99.90
46117;DHT22;32591;48.102;11.772;2022-11-24T10:05:33;9.00;99.90
46117;DHT22;32591;48.102;11.772;2022-11-24T10:08:08;9.00;99.90
46117;DHT22;32591;48.102;11.772;2022-11-24T10:10:50;9.00;99.90
46117;DHT22;32591;48.102;11.772;2022-11-24T10:13:24;9.00;99.90
46117;DHT22;32591;48.102;11.772;2022-11-24T10:16:05;9.10;99.90
46117;DHT22;32591;48.102;11.772;2022-11-24T10:18:53;9.10;99.90
46117;DHT22;32591;48.102;11.772;2022-11-24T10:21:43;9.10;99.90
46117;DHT22;32591;48.102;11.772;2022-11-24T10:24:33;9.10;99.90
46117;DHT22;32591;48.102;11.772;2022-11-24T10:27:22;9.10;99.90
46117;DHT22;32591;48.102;11.772;2022-11-24T10:29:52;9.00;99.90
46117;DHT22;32591;48.102;11.772;2022-11-24T10:32:24;9.00;99.90
46117;DHT22;32591;48.102;11.772;2022-11-24T10:34:58;9.00;99.90
46117;DHT22;32591;48.102;11.772;2022-11-24T10:37:32;9.00;99.90
46117;DHT22;32591;48.102;11.772;2022-11-24T10:40:09;8.80;99.90
46117;DHT22;32591;48.102;11.772;2022-11-24T10:42:39;8.90;99.90
46117;DHT22;32591;48.102;11.772;2022-11-24T10:45:10;8.60;99.90
46117;DHT22;32591;48.102;11.772;2022-11-24T10:47:39;8.40;99.90
46117;DHT22;32591;48.102;11.772;2022-11-24T10:50:14;8.30;99.90
46117;DHT22;32591;48.102;11.772;2022-11-24T10:52:52;8.20;99.90
46117;DHT22;32591;48.102;11.772;2022-11-24T10:55:22;8.00;99.90
46117;DHT22;32591;48.102;11.772;2022-11-24T10:57:49;7.90;99.90
46117;DHT22;32591;48.102;11.772;2022-11-24T11:00:30;7.80;99.90
46117;DHT22;32591;48.102;11.772;2022-11-24T11:03:14;7.70;99.90
46117;DHT22;32591;48.102;11.772;2022-11-24T11:05:47;7.60;99.90
46117;DHT22;32591;48.102;11.772;2022-11-24T11:08:25;7.30;99.90
46117;DHT22;32591;48.102;11.772;2022-11-24T11:11:16;7.20;99.90
46117;DHT22;32591;48.102;11.772;2022-11-24T11:13:50;7.00;99.90
46117;DHT22;32591;48.102;11.772;2022-11-24T11:16:25;6.90;99.90
46117;DHT22;32591;48.102;11.772;2022-11-24T11:18:56;6.80;99.90
46117;DHT22;32591;48.102;11.772;2022-11-24T11:21:37;6.70;99.90
46117;DHT22;32591;48.102;11.772;2022-11-24T11:24:13;6.70;99.90
46117;DHT22;32591;48.102;11.772;2022-11-24T11:26:43;6.70;99.90
46117;DHT22;32591;48.102;11.772;2022-11-24T11:29:15;6.70;99.90
46117;DHT22;32591;48.102;11.772;2022-11-24T11:31:57;6.70;99.90
46117;DHT22;32591;48.102;11.772;2022-11-24T11:34:29;6.60;99.90
46117;DHT22;32591;48.102;11.772;2022-11-24T11:36:59;6.70;99.90
46117;DHT22;32591;48.102;11.772;2022-11-24T11:39:29;6.80;99.90
46117;DHT22;32591;48.102;11.772;2022-11-24T11:42:06;6.80;99.90
46117;DHT22;32591;48.102;11.772;2022-11-24T11:44:43;6.70;99.90
46117;DHT22;32591;48.102;11.772;2022-11-24T11:47:23;6.60;99.90
46117;DHT22;32591;48.102;11.772;2022-11-24T11:49:52;6.80;99.90
46117;DHT22;32591;48.102;11.772;2022-11-24T11:52:37;6.70;99.90
46117;DHT22;32591;48.102;11.772;2022-11-24T11:55:30;6.70;99.90
46117;DHT22;32591;48.102;11.772;2022-11-24T11:58:13;6.70;99.90
46117;DHT22;32591;48.102;11.772;2022-11-24T12:00:53;6.70;99.90
46117;DHT22;32591;48.102;11.772;2022-11-24T12:03:55;6.80;99.90
46117;DHT22;32591;48.102;11.772;2022-11-24T12:06:44;6.80;99.90
46117;DHT22;32591;48.102;11.772;2022-11-24T12:09:23;6.80;99.90
46117;DHT22;32591;48.102;11.772;2022-11-24T12:12:14;6.70;99.90
46117;DHT22;32591;48.102;11.772;2022-11-24T12:14:58;6.70;99.90
46117;DHT22;32591;48.102;11.772;2022-11-24T12:17:36;6.70;99.90
46117;DHT22;32591;48.102;11.772;2022-11-24T12:20:21;6.80;99.90
46117;DHT22;32591;48.102;11.772;2022-11-24T12:22:58;6.80;99.90
46117;DHT22;32591;48.102;11.772;2022-11-24T12:25:34;6.80;99.90
46117;DHT22;32591;48.102;11.772;2022-11-24T12:28:14;6.90;99.90
46117;DHT22;32591;48.102;11.772;2022-11-24T12:30:59;6.90;99.90
46117;DHT22;32591;48.102;11.772;2022-11-24T12:34:04;7.00;99.90
46117;DHT22;32591;48.102;11.772;2022-11-24T12:36:49;7.00;99.90
46117;DHT22;32591;48.102;11.772;2022-11-24T12:39:27;7.10;99.90
46117;DHT22;32591;48.102;11.772;2022-11-24T12:42:08;7.00;99.90
46117;DHT22;32591;48.102;11.772;2022-11-24T12:47:52;7.00;99.90
46117;DHT22;32591;48.102;11.772;2022-11-24T12:50:29;7.00;99.90
46117;DHT22;32591;48.102;11.772;2022-11-24T12:53:01;7.10;99.90
46117;DHT22;32591;48.102;11.772;2022-11-24T12:55:32;7.00;99.90
46117;DHT22;32591;48.102;11.772;2022-11-24T12:58:06;7.00;99.90
46117;DHT22;32591;48.102;11.772;2022-11-24T13:00:45;7.00;99.90
46117;DHT22;32591;48.102;11.772;2022-11-24T13:03:28;7.10;99.90
46117;DHT22;32591;48.102;11.772;2022-11-24T13:06:06;7.10;99.90
46117;DHT22;32591;48.102;11.772;2022-11-24T13:08:37;7.10;99.90
46117;DHT22;32591;48.102;11.772;2022-11-24T13:11:36;7.40;99.90
46117;DHT22;32591;48.102;11.772;2022-11-24T13:14:10;7.20;99.90
46117;DHT22;32591;48.102;11.772;2022-11-24T13:16:55;7.20;99.90
46117;DHT22;32591;48.102;11.772;2022-11-24T13:19:24;7.20;99.90
46117;DHT22;32591;48.102;11.772;2022-11-24T13:22:09;7.30;99.90
46117;DHT22;32591;48.102;11.772;2022-11-24T13:24:41;7.30;99.90
46117;DHT22;32591;48.102;11.772;2022-11-24T13:27:38;7.30;99.90
46117;DHT22;32591;48.102;11.772;2022-11-24T13:33:31;7.20;99.90
46117;DHT22;32591;48.102;11.772;2022-11-24T13:36:30;7.10;99.90
46117;DHT22;32591;48.102;11.772;2022-11-24T13:39:02;7.00;99.90
46117;DHT22;32591;48.102;11.772;2022-11-24T13:42:05;7.00;99.90
46117;DHT22;32591;48.102;11.772;2022-11-24T13:44:49;7.00;99.90
46117;DHT22;32591;48.102;11.772;2022-11-24T13:47:37;7.00;99.90
46117;DHT22;32591;48.102;11.772;2022-11-24T13:50:14;7.00;99.90
46117;DHT22;32591;48.102;11.772;2022-11-24T13:52:50;7.10;99.90
46117;DHT22;32591;48.102;11.772;2022-11-24T13:55:28;7.10;99.90
46117;DHT22;32591;48.102;11.772;2022-11-24T13:58:22;7.20;99.90
46117;DHT22;32591;48.102;11.772;2022-11-24T14:01:13;7.20;99.90
46117;DHT22;32591;48.102;11.772;2022-11-24T14:03:50;7.40;99.90
46117;DHT22;32591;48.102;11.772;2022-11-24T14:06:29;7.30;99.90
46117;DHT22;32591;48.102;11.772;2022-11-24T14:08:58;7.30;99.90
46117;DHT22;32591;48.102;11.772;2022-11-24T14:11:27;7.30;99.90
46117;DHT22;32591;48.102;11.772;2022-11-24T14:13:54;7.30;99.90
46117;DHT22;32591;48.102;11.772;2022-11-24T14:16:22;7.20;99.90
46117;DHT22;32591;48.102;11.772;2022-11-24T14:18:51;7.20;99.90
46117;DHT22;32591;48.102;11.772;2022-11-24T14:21:23;7.20;99.90
46117;DHT22;32591;48.102;11.772;2022-11-24T14:23:56;7.20;99.90
46117;DHT22;32591;48.102;11.772;2022-11-24T14:26:31;7.20;99.90
46117;DHT22;32591;48.102;11.772;2022-11-24T14:29:10;7.20;99.90
46117;DHT22;32591;48.102;11.772;2022-11-24T14:31:40;7.20;99.90
46117;DHT22;32591;48.102;11.772;2022-11-24T14:34:15;7.30;99.90
46117;DHT22;32591;48.102;11.772;2022-11-24T14:36:46;7.30;99.90
46117;DHT22;32591;48.102;11.772;2022-11-24T14:39:14;7.20;99.90
46117;DHT22;32591;48.102;11.772;2022-11-24T14:41:48;7.10;99.90
46117;DHT22;32591;48.102;11.772;2022-11-24T14:44:20;7.00;99.90
46117;DHT22;32591;48.102;11.772;2022-11-24T14:46:49;7.00;99.90
46117;DHT22;32591;48.102;11.772;2022-11-24T14:49:18;7.00;99.90
46117;DHT22;32591;48.102;11.772;2022-11-24T14:51:51;7.00;99.90
46117;DHT22;32591;48.102;11.772;2022-11-24T14:54:22;7.00;99.90
46117;DHT22;32591;48.102;11.772;2022-11-24T14:56:58;6.90;99.90
46117;DHT22;32591;48.102;11.772;2022-11-24T14:59:28;6.80;99.90
46117;DHT22;32591;48.102;11.772;2022-11-24T15:01:56;6.80;99.90
46117;DHT22;32591;48.102;11.772;2022-11-24T15:04:26;6.80;99.90
46117;DHT22;32591;48.102;11.772;2022-11-24T15:07:04;6.90;99.90
46117;DHT22;32591;48.102;11.772;2022-11-24T15:09:48;6.80;99.90
46117;DHT22;32591;48.102;11.772;2022-11-24T15:12:23;6.80;99.90
46117;DHT22;32591;48.102;11.772;2022-11-24T15:14:55;6.80;99.90
46117;DHT22;32591;48.102;11.772;2022-11-24T15:17:25;6.80;99.90
46117;DHT22;32591;48.102;11.772;2022-11-24T15:19:55;6.40;99.90
46117;DHT22;32591;48.102;11.772;2022-11-24T15:22:33;6.20;99.90
46117;DHT22;32591;48.102;11.772;2022-11-24T15:25:02;6.10;99.90
46117;DHT22;32591;48.102;11.772;2022-11-24T15:27:45;6.00;99.90
46117;DHT22;32591;48.102;11.772;2022-11-24T15:30:12;6.00;99.90
46117;DHT22;32591;48.102;11.772;2022-11-24T15:32:47;5.90;99.90
46117;DHT22;32591;48.102;11.772;2022-11-24T15:35:19;5.90;99.90
46117;DHT22;32591;48.102;11.772;2022-11-24T15:37:49;5.90;99.90
46117;DHT22;32591;48.102;11.772;2022-11-24T15:40:17;5.90;99.90
46117;DHT22;32591;48.102;11.772;2022-11-24T15:42:48;5.90;99.90
46117;DHT22;32591;48.102;11.772;2022-11-24T15:45:17;5.90;99.90
46117;DHT22;32591;48.102;11.772;2022-11-24T15:47:44;6.00;99.90
46117;DHT22;32591;48.102;11.772;2022-11-24T15:50:11;6.00;99.90
46117;DHT22;32591;48.102;11.772;2022-11-24T15:52:39;6.00;99.90
46117;DHT22;32591;48.102;11.772;2022-11-24T15:55:14;6.00;99.90
46117;DHT22;32591;48.102;11.772;2022-11-24T15:57:43;6.10;99.90
46117;DHT22;32591;48.102;11.772;2022-11-24T16:00:14;6.20;99.90
46117;DHT22;32591;48.102;11.772;2022-11-24T16:02:42;6.20;99.90